sensor_id;sensor_type;location;lat;lon;timestamp;pressure;altitude;pressure_sealevel;temperature;humidity
68822;BME280;55834;50.870;4.606;2023-01-28T00:01:51;102164.25;;;1.65;57.33
68822;BME280;55834;50.870;4.606;2023-01-28T00:04:16;102168.94;;;1.76;56.85
68822;BME280;55834;50.870;4.606;2023-01-28T00:06:42;102156.97;;;2.42;55.59
68822;BME280;55834;50.870;4.606;2023-01-28T00:09:08;102156.88;;;1.78;55.99
68822;BME280;55834;50.870;4.606;2023-01-28T00:11:33;102164.78;;;1.27;57.29
68822;BME280;55834;50.870;4.606;2023-01-28T00:13:59;102156.50;;;1.39;57.64
68822;BME280;55834;50.870;4.606;2023-01-28T00:16:25;102148.28;;;2.11;57.50
68822;BME280;55834;50.870;4.606;2023-01-28T00:18:51;102152.47;;;2.36;55.92
68822;BME280;55834;50.870;4.606;2023-01-28T00:21:17;102149.72;;;2.32;55.33
68822;BME280;55834;50.870;4.606;2023-01-28T00:23:49;102151.06;;;2.81;54.56
68822;BME280;55834;50.870;4.606;2023-01-28T00:26:16;102149.84;;;2.06;54.32
68822;BME280;55834;50.870;4.606;2023-01-28T00:28:41;102157.25;;;1.36;56.31
68822;BME280;55834;50.870;4.606;2023-01-28T00:31:17;102151.94;;;1.32;56.96
68822;BME280;55834;50.870;4.606;2023-01-28T00:33:44;102139.97;;;1.94;57.02
68822;BME280;55834;50.870;4.606;2023-01-28T00:36:11;102143.41;;;1.93;55.05
68822;BME280;55834;50.870;4.606;2023-01-28T00:38:36;102149.28;;;2.15;55.15
68822;BME280;55834;50.870;4.606;2023-01-28T00:41:13;102151.56;;;2.04;55.02
68822;BME280;55834;50.870;4.606;2023-01-28T00:43:40;102159.19;;;1.69;54.83
68822;BME280;55834;50.870;4.606;2023-01-28T00:46:07;102159.16;;;1.41;55.38
68822;BME280;55834;50.870;4.606;2023-01-28T00:48:34;102152.88;;;2.20;53.76
68822;BME280;55834;50.870;4.606;2023-01-28T00:50:59;102164.69;;;1.80;55.04
68822;BME280;55834;50.870;4.606;2023-01-28T00:53:25;102162.63;;;1.97;53.51
68822;BME280;55834;50.870;4.606;2023-01-28T00:55:50;102165.09;;;2.53;52.85
68822;BME280;55834;50.870;4.606;2023-01-28T00:58:17;102167.50;;;2.77;51.71
68822;BME280;55834;50.870;4.606;2023-01-28T01:00:42;102162.72;;;2.30;52.71
68822;BME280;55834;50.870;4.606;2023-01-28T01:03:07;102165.44;;;2.65;52.18
68822;BME280;55834;50.870;4.606;2023-01-28T01:05:32;102164.00;;;1.86;53.54
68822;BME280;55834;50.870;4.606;2023-01-28T01:07:59;102156.56;;;2.58;51.99
68822;BME280;55834;50.870;4.606;2023-01-28T01:10:24;102162.59;;;1.68;53.75
68822;BME280;55834;50.870;4.606;2023-01-28T01:12:50;102160.25;;;2.35;51.94
68822;BME280;55834;50.870;4.606;2023-01-28T01:15:16;102167.22;;;1.77;54.21
68822;BME280;55834;50.870;4.606;2023-01-28T01:17:44;102164.31;;;2.25;53.02
68822;BME280;55834;50.870;4.606;2023-01-28T01:20:25;102160.78;;;2.23;52.85
68822;BME280;55834;50.870;4.606;2023-01-28T01:22:52;102168.59;;;2.53;53.35
68822;BME280;55834;50.870;4.606;2023-01-28T01:25:18;102178.34;;;2.60;51.43
68822;BME280;55834;50.870;4.606;2023-01-28T01:27:44;102192.72;;;1.33;55.45
68822;BME280;55834;50.870;4.606;2023-01-28T01:30:13;102193.84;;;0.88;56.67
68822;BME280;55834;50.870;4.606;2023-01-28T01:32:38;102190.50;;;1.45;54.65
68822;BME280;55834;50.870;4.606;2023-01-28T01:35:05;102189.44;;;1.39;54.92
68822;BME280;55834;50.870;4.606;2023-01-28T01:37:34;102192.41;;;1.49;55.26
68822;BME280;55834;50.870;4.606;2023-01-28T01:39:59;102190.84;;;1.54;55.34
68822;BME280;55834;50.870;4.606;2023-01-28T01:42:27;102182.66;;;2.28;55.05
68822;BME280;55834;50.870;4.606;2023-01-28T01:47:42;102172.84;;;2.49;53.31
68822;BME280;55834;50.870;4.606;2023-01-28T01:52:42;102184.47;;;2.02;53.67
68822;BME280;55834;50.870;4.606;2023-01-28T01:55:13;102175.84;;;2.33;54.09
68822;BME280;55834;50.870;4.606;2023-01-28T01:57:41;102177.88;;;2.43;52.93
68822;BME280;55834;50.870;4.606;2023-01-28T02:00:08;102183.00;;;2.10;53.76
68822;BME280;55834;50.870;4.606;2023-01-28T02:02:40;102179.84;;;1.63;55.16
68822;BME280;55834;50.870;4.606;2023-01-28T02:05:10;102174.16;;;2.05;54.53
68822;BME280;55834;50.870;4.606;2023-01-28T02:07:36;102177.94;;;2.46;52.56
68822;BME280;55834;50.870;4.606;2023-01-28T02:10:02;102173.25;;;2.33;53.28
68822;BME280;55834;50.870;4.606;2023-01-28T02:12:40;102178.59;;;1.52;55.56
68822;BME280;55834;50.870;4.606;2023-01-28T02:15:10;102179.69;;;1.31;56.37
68822;BME280;55834;50.870;4.606;2023-01-28T02:17:36;102191.53;;;0.50;58.01
68822;BME280;55834;50.870;4.606;2023-01-28T02:20:08;102184.31;;;0.65;57.77
68822;BME280;55834;50.870;4.606;2023-01-28T02:25:14;102184.97;;;0.59;58.76
68822;BME280;55834;50.870;4.606;2023-01-28T02:30:41;102169.56;;;1.96;55.39
68822;BME280;55834;50.870;4.606;2023-01-28T02:33:13;102171.47;;;2.02;54.49
68822;BME280;55834;50.870;4.606;2023-01-28T02:35:47;102178.13;;;2.21;54.23
68822;BME280;55834;50.870;4.606;2023-01-28T02:38:18;102178.88;;;2.48;53.19
68822;BME280;55834;50.870;4.606;2023-01-28T02:40:47;102176.72;;;2.03;53.78
68822;BME280;55834;50.870;4.606;2023-01-28T02:46:07;102177.53;;;1.74;55.23
68822;BME280;55834;50.870;4.606;2023-01-28T02:48:57;102181.59;;;1.37;56.41
68822;BME280;55834;50.870;4.606;2023-01-28T02:54:00;102187.59;;;0.61;57.71
68822;BME280;55834;50.870;4.606;2023-01-28T02:56:38;102188.13;;;0.75;59.63
68822;BME280;55834;50.870;4.606;2023-01-28T03:02:20;102171.69;;;1.54;55.41
68822;BME280;55834;50.870;4.606;2023-01-28T03:07:47;102184.53;;;1.48;54.99
68822;BME280;55834;50.870;4.606;2023-01-28T03:10:16;102186.94;;;1.16;57.18
68822;BME280;55834;50.870;4.606;2023-01-28T03:12:46;102193.56;;;0.81;57.48
68822;BME280;55834;50.870;4.606;2023-01-28T03:15:50;102192.69;;;1.31;57.25
68822;BME280;55834;50.870;4.606;2023-01-28T03:18:43;102204.59;;;0.74;57.47
68822;BME280;55834;50.870;4.606;2023-01-28T03:21:33;102206.19;;;0.72;58.64
68822;BME280;55834;50.870;4.606;2023-01-28T03:24:29;102208.41;;;1.34;57.16
68822;BME280;55834;50.870;4.606;2023-01-28T03:27:33;102215.69;;;0.94;57.30
68822;BME280;55834;50.870;4.606;2023-01-28T03:30:36;102210.94;;;0.35;60.28
68822;BME280;55834;50.870;4.606;2023-01-28T03:33:23;102211.63;;;1.27;57.21
68822;BME280;55834;50.870;4.606;2023-01-28T03:36:09;102219.75;;;0.87;58.40
68822;BME280;55834;50.870;4.606;2023-01-28T03:38:53;102217.84;;;0.81;57.91
68822;BME280;55834;50.870;4.606;2023-01-28T03:41:23;102217.63;;;0.75;58.85
68822;BME280;55834;50.870;4.606;2023-01-28T03:43:50;102224.81;;;1.59;55.85
68822;BME280;55834;50.870;4.606;2023-01-28T03:46:15;102219.59;;;1.32;56.09
68822;BME280;55834;50.870;4.606;2023-01-28T03:48:42;102228.13;;;1.02;56.48
68822;BME280;55834;50.870;4.606;2023-01-28T03:51:08;102231.84;;;0.85;56.78
68822;BME280;55834;50.870;4.606;2023-01-28T03:53:33;102226.22;;;0.98;56.74
68822;BME280;55834;50.870;4.606;2023-01-28T03:55:58;102237.06;;;0.16;60.03
68822;BME280;55834;50.870;4.606;2023-01-28T03:58:24;102242.13;;;-0.94;62.09
68822;BME280;55834;50.870;4.606;2023-01-28T04:01:25;102227.66;;;0.19;59.76
68822;BME280;55834;50.870;4.606;2023-01-28T04:03:51;102220.06;;;0.72;57.81
68822;BME280;55834;50.870;4.606;2023-01-28T04:06:16;102228.47;;;1.13;56.74
68822;BME280;55834;50.870;4.606;2023-01-28T04:08:41;102235.97;;;1.04;56.59
68822;BME280;55834;50.870;4.606;2023-01-28T04:11:20;102227.22;;;0.76;57.34
68822;BME280;55834;50.870;4.606;2023-01-28T04:13:47;102222.28;;;0.37;58.10
68822;BME280;55834;50.870;4.606;2023-01-28T04:16:14;102222.22;;;1.33;56.41
68822;BME280;55834;50.870;4.606;2023-01-28T04:18:41;102230.00;;;1.32;55.16
68822;BME280;55834;50.870;4.606;2023-01-28T04:21:06;102229.66;;;-0.18;58.70
68822;BME280;55834;50.870;4.606;2023-01-28T04:23:32;102228.31;;;0.36;58.14
68822;BME280;55834;50.870;4.606;2023-01-28T04:25:57;102235.34;;;0.85;55.81
68822;BME280;55834;50.870;4.606;2023-01-28T04:28:23;102228.06;;;0.30;57.37
68822;BME280;55834;50.870;4.606;2023-01-28T04:30:48;102246.13;;;-0.39;59.98
68822;BME280;55834;50.870;4.606;2023-01-28T04:33:13;102238.41;;;0.53;57.11
68822;BME280;55834;50.870;4.606;2023-01-28T04:35:39;102241.84;;;0.98;55.05
68822;BME280;55834;50.870;4.606;2023-01-28T04:38:05;102242.28;;;0.86;54.90
68822;BME280;55834;50.870;4.606;2023-01-28T04:40:30;102251.91;;;-0.03;58.09
68822;BME280;55834;50.870;4.606;2023-01-28T04:42:56;102235.00;;;0.54;56.28
68822;BME280;55834;50.870;4.606;2023-01-28T04:45:22;102235.56;;;1.43;54.72
68822;BME280;55834;50.870;4.606;2023-01-28T04:47:47;102239.81;;;1.66;52.75
68822;BME280;55834;50.870;4.606;2023-01-28T04:50:14;102242.69;;;1.23;55.76
68822;BME280;55834;50.870;4.606;2023-01-28T04:52:39;102240.88;;;1.20;54.38
68822;BME280;55834;50.870;4.606;2023-01-28T04:55:05;102240.22;;;0.54;57.62
68822;BME280;55834;50.870;4.606;2023-01-28T04:57:31;102246.41;;;1.56;54.70
68822;BME280;55834;50.870;4.606;2023-01-28T04:59:56;102243.00;;;1.85;53.97
68822;BME280;55834;50.870;4.606;2023-01-28T05:02:22;102230.13;;;2.18;52.87
68822;BME280;55834;50.870;4.606;2023-01-28T05:04:47;102242.75;;;2.33;53.08
68822;BME280;55834;50.870;4.606;2023-01-28T05:07:12;102233.28;;;2.36;52.48
68822;BME280;55834;50.870;4.606;2023-01-28T05:09:37;102244.97;;;1.39;55.67
68822;BME280;55834;50.870;4.606;2023-01-28T05:12:03;102242.91;;;0.57;57.19
68822;BME280;55834;50.870;4.606;2023-01-28T05:14:28;102247.25;;;1.04;57.96
68822;BME280;55834;50.870;4.606;2023-01-28T05:16:54;102247.91;;;1.23;55.38
68822;BME280;55834;50.870;4.606;2023-01-28T05:19:19;102235.97;;;1.82;55.49
68822;BME280;55834;50.870;4.606;2023-01-28T05:21:44;102241.31;;;1.59;55.19
68822;BME280;55834;50.870;4.606;2023-01-28T05:24:10;102246.53;;;0.84;55.98
68822;BME280;55834;50.870;4.606;2023-01-28T05:26:36;102246.97;;;0.04;59.31
68822;BME280;55834;50.870;4.606;2023-01-28T05:29:02;102244.44;;;1.22;57.58
68822;BME280;55834;50.870;4.606;2023-01-28T05:31:27;102241.84;;;1.76;54.63
68822;BME280;55834;50.870;4.606;2023-01-28T05:33:53;102241.81;;;1.22;54.91
68822;BME280;55834;50.870;4.606;2023-01-28T05:36:18;102233.81;;;1.97;52.93
68822;BME280;55834;50.870;4.606;2023-01-28T05:38:44;102246.31;;;0.32;56.68
68822;BME280;55834;50.870;4.606;2023-01-28T05:41:09;102244.97;;;0.65;56.39
68822;BME280;55834;50.870;4.606;2023-01-28T05:43:35;102243.25;;;0.66;56.43
68822;BME280;55834;50.870;4.606;2023-01-28T05:46:00;102248.50;;;1.16;54.56
68822;BME280;55834;50.870;4.606;2023-01-28T05:48:25;102248.66;;;0.95;55.64
68822;BME280;55834;50.870;4.606;2023-01-28T05:50:51;102253.69;;;-0.23;59.44
68822;BME280;55834;50.870;4.606;2023-01-28T05:53:16;102241.84;;;0.74;56.84
68822;BME280;55834;50.870;4.606;2023-01-28T05:55:41;102245.72;;;1.35;54.24
68822;BME280;55834;50.870;4.606;2023-01-28T05:58:10;102251.78;;;1.35;53.86
68822;BME280;55834;50.870;4.606;2023-01-28T06:00:35;102248.31;;;0.39;54.95
68822;BME280;55834;50.870;4.606;2023-01-28T06:03:00;102242.84;;;1.27;53.48
68822;BME280;55834;50.870;4.606;2023-01-28T06:05:26;102255.34;;;1.63;52.80
68822;BME280;55834;50.870;4.606;2023-01-28T06:07:51;102258.03;;;1.41;52.88
68822;BME280;55834;50.870;4.606;2023-01-28T06:10:16;102260.66;;;0.91;54.26
68822;BME280;55834;50.870;4.606;2023-01-28T06:12:42;102257.03;;;1.63;52.55
68822;BME280;55834;50.870;4.606;2023-01-28T06:15:09;102268.50;;;1.42;52.25
68822;BME280;55834;50.870;4.606;2023-01-28T06:17:34;102277.09;;;-0.00;55.66
68822;BME280;55834;50.870;4.606;2023-01-28T06:19:59;102277.41;;;0.08;57.06
68822;BME280;55834;50.870;4.606;2023-01-28T06:22:25;102275.25;;;-0.25;57.11
68822;BME280;55834;50.870;4.606;2023-01-28T06:24:50;102276.47;;;0.06;55.72
68822;BME280;55834;50.870;4.606;2023-01-28T06:27:15;102282.28;;;1.14;53.34
68822;BME280;55834;50.870;4.606;2023-01-28T06:29:41;102275.22;;;1.35;51.87
68822;BME280;55834;50.870;4.606;2023-01-28T06:32:06;102282.84;;;1.05;52.67
68822;BME280;55834;50.870;4.606;2023-01-28T06:34:32;102284.16;;;1.69;52.11
68822;BME280;55834;50.870;4.606;2023-01-28T06:36:57;102290.63;;;1.55;52.24
68822;BME280;55834;50.870;4.606;2023-01-28T06:39:22;102289.31;;;0.93;54.39
68822;BME280;55834;50.870;4.606;2023-01-28T06:41:48;102286.47;;;0.40;54.76
68822;BME280;55834;50.870;4.606;2023-01-28T06:44:15;102287.00;;;0.31;54.83
68822;BME280;55834;50.870;4.606;2023-01-28T06:46:40;102291.47;;;-0.31;55.69
68822;BME280;55834;50.870;4.606;2023-01-28T06:49:06;102291.25;;;0.07;55.50
68822;BME280;55834;50.870;4.606;2023-01-28T06:51:31;102291.84;;;0.22;54.76
68822;BME280;55834;50.870;4.606;2023-01-28T06:53:57;102285.50;;;0.83;53.33
68822;BME280;55834;50.870;4.606;2023-01-28T06:56:22;102289.06;;;0.62;52.21
68822;BME280;55834;50.870;4.606;2023-01-28T06:58:48;102283.31;;;0.71;53.43
68822;BME280;55834;50.870;4.606;2023-01-28T07:01:13;102279.09;;;0.73;52.43
68822;BME280;55834;50.870;4.606;2023-01-28T07:03:39;102286.63;;;1.13;53.67
68822;BME280;55834;50.870;4.606;2023-01-28T07:06:04;102285.91;;;0.94;52.80
68822;BME280;55834;50.870;4.606;2023-01-28T07:08:29;102295.34;;;0.69;54.39
68822;BME280;55834;50.870;4.606;2023-01-28T07:10:55;102302.38;;;0.27;55.10
68822;BME280;55834;50.870;4.606;2023-01-28T07:13:20;102292.53;;;0.85;52.75
68822;BME280;55834;50.870;4.606;2023-01-28T07:15:46;102289.31;;;0.70;53.14
68822;BME280;55834;50.870;4.606;2023-01-28T07:18:12;102294.91;;;0.79;53.07
68822;BME280;55834;50.870;4.606;2023-01-28T07:20:37;102290.09;;;0.90;52.91
68822;BME280;55834;50.870;4.606;2023-01-28T07:23:03;102297.66;;;1.32;51.41
68822;BME280;55834;50.870;4.606;2023-01-28T07:25:34;102290.75;;;0.84;52.18
68822;BME280;55834;50.870;4.606;2023-01-28T07:28:00;102304.03;;;0.69;52.27
68822;BME280;55834;50.870;4.606;2023-01-28T07:30:25;102301.75;;;0.77;52.30
68822;BME280;55834;50.870;4.606;2023-01-28T07:32:55;102299.97;;;0.31;53.58
68822;BME280;55834;50.870;4.606;2023-01-28T07:35:21;102305.09;;;-0.14;55.41
68822;BME280;55834;50.870;4.606;2023-01-28T07:37:53;102293.16;;;-0.10;53.82
68822;BME280;55834;50.870;4.606;2023-01-28T07:40:19;102290.56;;;-0.52;55.85
68822;BME280;55834;50.870;4.606;2023-01-28T07:42:45;102287.41;;;-0.45;54.65
68822;BME280;55834;50.870;4.606;2023-01-28T07:45:11;102296.56;;;0.10;54.00
68822;BME280;55834;50.870;4.606;2023-01-28T07:47:37;102305.88;;;0.50;52.43
68822;BME280;55834;50.870;4.606;2023-01-28T07:50:02;102303.31;;;0.96;51.47
68822;BME280;55834;50.870;4.606;2023-01-28T07:52:28;102313.31;;;0.63;53.00
68822;BME280;55834;50.870;4.606;2023-01-28T07:54:53;102308.47;;;0.72;51.90
68822;BME280;55834;50.870;4.606;2023-01-28T07:57:18;102320.03;;;0.35;53.28
68822;BME280;55834;50.870;4.606;2023-01-28T07:59:50;102314.97;;;0.61;53.05
68822;BME280;55834;50.870;4.606;2023-01-28T08:02:16;102317.63;;;0.40;52.47
68822;BME280;55834;50.870;4.606;2023-01-28T08:04:43;102317.97;;;0.27;53.28
68822;BME280;55834;50.870;4.606;2023-01-28T08:07:09;102321.13;;;1.09;51.61
68822;BME280;55834;50.870;4.606;2023-01-28T08:09:34;102312.59;;;0.89;52.45
68822;BME280;55834;50.870;4.606;2023-01-28T08:12:03;102327.47;;;-0.17;56.23
68822;BME280;55834;50.870;4.606;2023-01-28T08:14:28;102330.97;;;-0.57;55.65
68822;BME280;55834;50.870;4.606;2023-01-28T08:16:53;102328.00;;;0.38;54.80
68822;BME280;55834;50.870;4.606;2023-01-28T08:19:18;102330.69;;;1.10;52.74
68822;BME280;55834;50.870;4.606;2023-01-28T08:21:49;102334.31;;;1.14;51.91
68822;BME280;55834;50.870;4.606;2023-01-28T08:24:15;102342.00;;;0.64;52.94
68822;BME280;55834;50.870;4.606;2023-01-28T08:26:40;102331.00;;;0.94;52.71
68822;BME280;55834;50.870;4.606;2023-01-28T08:29:06;102339.31;;;0.40;53.46
68822;BME280;55834;50.870;4.606;2023-01-28T08:31:31;102344.44;;;-0.05;54.94
68822;BME280;55834;50.870;4.606;2023-01-28T08:33:56;102340.28;;;1.11;53.14
68822;BME280;55834;50.870;4.606;2023-01-28T08:36:22;102334.03;;;0.82;53.25
68822;BME280;55834;50.870;4.606;2023-01-28T08:38:51;102333.41;;;0.67;53.73
68822;BME280;55834;50.870;4.606;2023-01-28T08:41:18;102339.16;;;1.05;52.17
68822;BME280;55834;50.870;4.606;2023-01-28T08:43:44;102362.09;;;-0.17;55.08
68822;BME280;55834;50.870;4.606;2023-01-28T08:46:09;102362.88;;;-0.79;56.24
68822;BME280;55834;50.870;4.606;2023-01-28T08:48:34;102359.56;;;-0.15;56.64
68822;BME280;55834;50.870;4.606;2023-01-28T08:51:02;102366.03;;;0.15;55.21
68822;BME280;55834;50.870;4.606;2023-01-28T08:53:27;102367.50;;;0.73;53.13
68822;BME280;55834;50.870;4.606;2023-01-28T08:55:53;102376.44;;;0.15;53.97
68822;BME280;55834;50.870;4.606;2023-01-28T08:58:19;102381.03;;;1.11;52.61
68822;BME280;55834;50.870;4.606;2023-01-28T09:00:44;102372.03;;;1.51;51.19
68822;BME280;55834;50.870;4.606;2023-01-28T09:03:10;102383.31;;;0.58;51.96
68822;BME280;55834;50.870;4.606;2023-01-28T09:05:36;102397.44;;;-0.21;55.33
68822;BME280;55834;50.870;4.606;2023-01-28T09:08:13;102398.38;;;0.44;53.71
68822;BME280;55834;50.870;4.606;2023-01-28T09:10:39;102388.47;;;-0.08;54.36
68822;BME280;55834;50.870;4.606;2023-01-28T09:13:15;102404.00;;;-1.44;58.37
68822;BME280;55834;50.870;4.606;2023-01-28T09:15:41;102412.06;;;-1.38;57.76
68822;BME280;55834;50.870;4.606;2023-01-28T09:18:07;102389.66;;;-0.21;54.37
68822;BME280;55834;50.870;4.606;2023-01-28T09:20:32;102404.38;;;-1.90;58.53
68822;BME280;55834;50.870;4.606;2023-01-28T09:22:59;102386.94;;;-1.01;58.42
68822;BME280;55834;50.870;4.606;2023-01-28T09:25:24;102388.94;;;-0.96;56.16
68822;BME280;55834;50.870;4.606;2023-01-28T09:27:50;102402.06;;;-0.73;56.01
68822;BME280;55834;50.870;4.606;2023-01-28T09:30:15;102396.19;;;-0.88;56.58
68822;BME280;55834;50.870;4.606;2023-01-28T09:32:41;102416.66;;;-1.68;59.57
68822;BME280;55834;50.870;4.606;2023-01-28T09:35:06;102401.38;;;-0.50;55.94
68822;BME280;55834;50.870;4.606;2023-01-28T09:37:32;102406.66;;;-0.08;54.83
68822;BME280;55834;50.870;4.606;2023-01-28T09:39:57;102401.09;;;0.27;53.45
68822;BME280;55834;50.870;4.606;2023-01-28T09:45:00;102425.31;;;-1.49;56.92
68822;BME280;55834;50.870;4.606;2023-01-28T09:47:37;102427.53;;;-0.45;55.46
68822;BME280;55834;50.870;4.606;2023-01-28T09:50:30;102411.75;;;-0.88;54.50
68822;BME280;55834;50.870;4.606;2023-01-28T09:52:54;102402.66;;;-0.40;54.48
68822;BME280;55834;50.870;4.606;2023-01-28T09:55:33;102411.16;;;-0.23;53.08
68822;BME280;55834;50.870;4.606;2023-01-28T09:58:00;102407.63;;;0.38;52.46
68822;BME280;55834;50.870;4.606;2023-01-28T10:00:36;102429.88;;;-2.14;58.23
68822;BME280;55834;50.870;4.606;2023-01-28T10:03:35;102413.19;;;-0.56;54.95
68822;BME280;55834;50.870;4.606;2023-01-28T10:12:04;102413.41;;;-0.71;54.19
68822;BME280;55834;50.870;4.606;2023-01-28T10:17:29;102428.94;;;-0.52;55.08
68822;BME280;55834;50.870;4.606;2023-01-28T10:20:00;102427.84;;;-0.37;53.58
68822;BME280;55834;50.870;4.606;2023-01-28T10:22:35;102428.28;;;0.56;51.18
68822;BME280;55834;50.870;4.606;2023-01-28T10:25:07;102424.38;;;0.67;51.54
68822;BME280;55834;50.870;4.606;2023-01-28T10:27:40;102422.31;;;0.79;50.39
68822;BME280;55834;50.870;4.606;2023-01-28T10:30:30;102405.44;;;1.63;49.95
68822;BME280;55834;50.870;4.606;2023-01-28T10:33:02;102424.06;;;-0.65;54.37
68822;BME280;55834;50.870;4.606;2023-01-28T10:35:32;102422.28;;;0.15;52.91
68822;BME280;55834;50.870;4.606;2023-01-28T10:38:01;102417.31;;;0.63;51.18
68822;BME280;55834;50.870;4.606;2023-01-28T10:40:31;102430.81;;;-0.69;54.18
68822;BME280;55834;50.870;4.606;2023-01-28T10:42:57;102424.31;;;0.01;53.00
68822;BME280;55834;50.870;4.606;2023-01-28T10:45:36;102433.94;;;-0.76;52.92
68822;BME280;55834;50.870;4.606;2023-01-28T10:48:24;102443.34;;;-0.97;55.56
68822;BME280;55834;50.870;4.606;2023-01-28T10:50:55;102436.78;;;-1.26;55.77
68822;BME280;55834;50.870;4.606;2023-01-28T10:55:59;102424.84;;;0.57;52.59
68822;BME280;55834;50.870;4.606;2023-01-28T10:58:28;102431.34;;;0.89;50.63
68822;BME280;55834;50.870;4.606;2023-01-28T11:01:04;102429.94;;;-0.09;51.57
68822;BME280;55834;50.870;4.606;2023-01-28T11:03:30;102436.47;;;0.87;48.86
68822;BME280;55834;50.870;4.606;2023-01-28T11:05:57;102417.06;;;1.72;48.54
68822;BME280;55834;50.870;4.606;2023-01-28T11:08:25;102413.63;;;1.73;47.02
68822;BME280;55834;50.870;4.606;2023-01-28T11:10:53;102416.19;;;1.48;46.54
68822;BME280;55834;50.870;4.606;2023-01-28T11:16:03;102412.50;;;0.51;50.21
68822;BME280;55834;50.870;4.606;2023-01-28T11:18:32;102425.84;;;0.81;50.13
68822;BME280;55834;50.870;4.606;2023-01-28T11:21:05;102416.97;;;1.21;49.11
68822;BME280;55834;50.870;4.606;2023-01-28T11:23:33;102417.72;;;1.19;49.70
68822;BME280;55834;50.870;4.606;2023-01-28T11:26:07;102403.84;;;1.18;48.25
68822;BME280;55834;50.870;4.606;2023-01-28T11:28:34;102426.56;;;-1.23;54.43
68822;BME280;55834;50.870;4.606;2023-01-28T11:31:04;102427.19;;;-1.09;53.94
68822;BME280;55834;50.870;4.606;2023-01-28T11:33:35;102416.53;;;0.01;51.56
68822;BME280;55834;50.870;4.606;2023-01-28T11:36:14;102419.66;;;-0.47;53.42
68822;BME280;55834;50.870;4.606;2023-01-28T11:41:34;102435.59;;;-0.96;53.29
68822;BME280;55834;50.870;4.606;2023-01-28T11:55:46;102405.28;;;0.23;49.34
68822;BME280;55834;50.870;4.606;2023-01-28T12:07:56;102388.28;;;2.20;47.77
68822;BME280;55834;50.870;4.606;2023-01-28T12:13:04;102372.41;;;2.13;45.68
68822;BME280;55834;50.870;4.606;2023-01-28T12:26:52;102353.94;;;-0.26;51.54
68822;BME280;55834;50.870;4.606;2023-01-28T12:30:01;102357.50;;;-1.41;54.71
68822;BME280;55834;50.870;4.606;2023-01-28T12:43:01;102312.22;;;-0.10;52.37
68822;BME280;55834;50.870;4.606;2023-01-28T12:45:37;102297.22;;;0.96;49.29
68822;BME280;55834;50.870;4.606;2023-01-28T12:50:43;102286.88;;;1.99;47.29
68822;BME280;55834;50.870;4.606;2023-01-28T12:58:38;102294.28;;;0.86;48.37
68822;BME280;55834;50.870;4.606;2023-01-28T13:01:10;102307.13;;;1.81;47.80
68822;BME280;55834;50.870;4.606;2023-01-28T13:04:00;102304.94;;;1.17;49.12
68822;BME280;55834;50.870;4.606;2023-01-28T13:06:37;102302.59;;;2.02;46.70
68822;BME280;55834;50.870;4.606;2023-01-28T13:09:25;102291.94;;;2.52;45.80
68822;BME280;55834;50.870;4.606;2023-01-28T13:11:53;102295.84;;;2.36;45.76
68822;BME280;55834;50.870;4.606;2023-01-28T13:14:24;102301.34;;;1.64;46.04
68822;BME280;55834;50.870;4.606;2023-01-28T13:16:51;102309.84;;;1.09;47.44
68822;BME280;55834;50.870;4.606;2023-01-28T13:21:41;102327.38;;;1.39;48.21
68822;BME280;55834;50.870;4.606;2023-01-28T13:26:50;102323.78;;;0.87;49.34
68822;BME280;55834;50.870;4.606;2023-01-28T13:31:55;102332.28;;;1.55;46.25
68822;BME280;55834;50.870;4.606;2023-01-28T13:34:35;102321.03;;;1.56;47.46
68822;BME280;55834;50.870;4.606;2023-01-28T13:37:29;102323.84;;;2.43;46.26
68822;BME280;55834;50.870;4.606;2023-01-28T13:40:28;102318.19;;;2.87;43.93
68822;BME280;55834;50.870;4.606;2023-01-28T13:43:50;102326.84;;;2.56;43.62
68822;BME280;55834;50.870;4.606;2023-01-28T13:46:11;102337.44;;;1.79;45.91
68822;BME280;55834;50.870;4.606;2023-01-28T13:48:45;102344.09;;;1.71;45.63
68822;BME280;55834;50.870;4.606;2023-01-28T13:51:34;102320.44;;;2.46;43.96
68822;BME280;55834;50.870;4.606;2023-01-28T13:54:03;102323.16;;;2.49;45.59
68822;BME280;55834;50.870;4.606;2023-01-28T13:56:38;102321.44;;;3.10;46.07
68822;BME280;55834;50.870;4.606;2023-01-28T13:59:27;102345.00;;;0.09;50.00
68822;BME280;55834;50.870;4.606;2023-01-28T14:02:01;102344.69;;;0.67;51.04
68822;BME280;55834;50.870;4.606;2023-01-28T14:04:55;102343.63;;;-0.04;51.84
68822;BME280;55834;50.870;4.606;2023-01-28T14:13:30;102332.75;;;1.43;48.01
68822;BME280;55834;50.870;4.606;2023-01-28T14:18:33;102313.59;;;1.94;47.23
68822;BME280;55834;50.870;4.606;2023-01-28T14:21:00;102314.16;;;1.84;47.37
68822;BME280;55834;50.870;4.606;2023-01-28T14:23:26;102304.34;;;2.59;47.15
68822;BME280;55834;50.870;4.606;2023-01-28T14:26:08;102290.13;;;3.10;45.41
68822;BME280;55834;50.870;4.606;2023-01-28T14:28:46;102297.00;;;3.06;43.57
68822;BME280;55834;50.870;4.606;2023-01-28T14:31:24;102322.03;;;1.34;47.50
68822;BME280;55834;50.870;4.606;2023-01-28T14:33:50;102322.69;;;2.34;45.63
68822;BME280;55834;50.870;4.606;2023-01-28T14:36:16;102297.75;;;2.72;45.16
68822;BME280;55834;50.870;4.606;2023-01-28T14:38:43;102299.66;;;3.08;43.88
68822;BME280;55834;50.870;4.606;2023-01-28T14:41:09;102291.56;;;3.30;43.95
68822;BME280;55834;50.870;4.606;2023-01-28T14:43:43;102281.03;;;2.95;44.63
68822;BME280;55834;50.870;4.606;2023-01-28T14:47:08;102282.75;;;3.25;44.42
68822;BME280;55834;50.870;4.606;2023-01-28T14:49:16;102278.13;;;3.48;43.95
68822;BME280;55834;50.870;4.606;2023-01-28T14:54:47;102293.72;;;3.45;43.52
68822;BME280;55834;50.870;4.606;2023-01-28T14:57:49;102297.88;;;3.37;43.11
68822;BME280;55834;50.870;4.606;2023-01-28T15:02:46;102316.41;;;2.00;45.11
68822;BME280;55834;50.870;4.606;2023-01-28T15:05:21;102305.94;;;2.54;44.96
68822;BME280;55834;50.870;4.606;2023-01-28T15:07:47;102306.91;;;2.88;44.23
68822;BME280;55834;50.870;4.606;2023-01-28T15:12:40;102314.66;;;1.48;46.65